createdAt,value
2022-10-20T00:01:51.844Z,19.90
2022-10-20T00:04:18.537Z,15.48
2022-10-20T00:06:45.162Z,14.82
2022-10-20T00:09:11.987Z,11.70
2022-10-20T00:11:39.326Z,14.88
2022-10-20T00:14:06.247Z,11.75
2022-10-20T00:16:36.946Z,15.00
2022-10-20T00:19:03.991Z,14.07
2022-10-20T00:21:31.833Z,16.25
2022-10-20T00:24:01.471Z,13.27
2022-10-20T00:26:30.110Z,17.63
2022-10-20T00:28:57.701Z,18.73
2022-10-20T00:31:25.992Z,19.02
2022-10-20T00:33:53.485Z,18.25
2022-10-20T00:36:21.892Z,12.13
2022-10-20T00:38:49.413Z,16.58
2022-10-20T00:41:18.208Z,16.52
2022-10-20T00:43:54.221Z,14.18
2022-10-20T00:46:23.892Z,20.80
2022-10-20T00:48:55.301Z,15.73
2022-10-20T00:51:26.495Z,12.05
2022-10-20T00:53:58.360Z,13.85
2022-10-20T00:56:25.172Z,26.35
2022-10-20T00:58:51.835Z,20.98
2022-10-20T01:01:19.079Z,20.88
2022-10-20T01:03:49.141Z,14.48
2022-10-20T01:06:18.274Z,19.25
2022-10-20T01:08:45.076Z,17.98
2022-10-20T01:11:27.640Z,17.80
2022-10-20T01:14:06.804Z,27.08
2022-10-20T01:16:48.702Z,21.55
2022-10-20T01:19:25.496Z,27.38
2022-10-20T01:22:13.446Z,20.35
2022-10-20T01:24:50.802Z,21.70
2022-10-20T01:27:42.155Z,20.75
2022-10-20T01:30:13.428Z,23.92
2022-10-20T01:33:07.320Z,29.30
2022-10-20T01:35:49.175Z,23.40
2022-10-20T01:38:41.270Z,22.90
2022-10-20T01:41:14.203Z,19.67
2022-10-20T01:43:46.280Z,21.13
2022-10-20T01:46:15.777Z,25.65
2022-10-20T01:48:43.367Z,19.75
2022-10-20T01:51:10.690Z,22.15
2022-10-20T01:53:37.477Z,27.55
2022-10-20T01:56:05.094Z,30.90
2022-10-20T01:58:51.361Z,24.75
2022-10-20T02:01:42.676Z,28.52
2022-10-20T02:04:10.712Z,30.48
2022-10-20T02:06:52.526Z,27.92
2022-10-20T02:09:31.847Z,29.30
2022-10-20T02:12:03.250Z,36.22
2022-10-20T02:14:33.184Z,35.97
2022-10-20T02:17:06.659Z,34.72
2022-10-20T02:19:39.626Z,25.23
2022-10-20T02:22:08.862Z,32.70
2022-10-20T02:24:38.377Z,32.03
2022-10-20T02:27:14.122Z,32.33
2022-10-20T02:29:46.845Z,24.55
2022-10-20T02:32:16.210Z,23.23
2022-10-20T02:34:43.479Z,23.63
2022-10-20T02:37:11.044Z,22.83
2022-10-20T02:39:37.742Z,27.65
2022-10-20T02:42:04.399Z,17.42
2022-10-20T02:44:31.014Z,17.85
2022-10-20T02:46:57.689Z,22.17
2022-10-20T02:49:25.215Z,15.80
2022-10-20T02:51:51.849Z,18.63
2022-10-20T02:54:18.519Z,13.38
2022-10-20T02:56:45.206Z,18.77
2022-10-20T02:59:14.922Z,11.68
2022-10-20T03:01:41.788Z,15.65
2022-10-20T03:04:08.846Z,14.35
2022-10-20T03:06:35.564Z,12.80
2022-10-20T03:09:02.671Z,13.15
2022-10-20T03:11:29.653Z,11.07
2022-10-20T03:13:56.299Z,14.18
2022-10-20T03:16:22.975Z,12.82
2022-10-20T03:18:49.689Z,15.48
2022-10-20T03:21:16.297Z,16.17
2022-10-20T03:23:42.897Z,17.20
2022-10-20T03:26:11.204Z,14.60
2022-10-20T03:28:38.950Z,13.10
2022-10-20T03:31:06.072Z,16.13
2022-10-20T03:33:32.918Z,15.98
2022-10-20T03:35:59.521Z,13.57
2022-10-20T03:38:26.247Z,12.15
2022-10-20T03:40:52.955Z,12.55
2022-10-20T03:43:19.610Z,12.45
2022-10-20T03:45:46.228Z,18.17
2022-10-20T03:48:12.861Z,11.15
2022-10-20T03:50:40.196Z,10.85
2022-10-20T03:53:07.436Z,12.93
2022-10-20T03:55:34.050Z,14.85
2022-10-20T03:58:00.679Z,15.50
2022-10-20T04:00:27.352Z,12.18
2022-10-20T04:02:54.035Z,17.50
2022-10-20T04:05:20.926Z,19.00
2022-10-20T04:07:47.699Z,10.63
2022-10-20T04:10:16.530Z,10.63
2022-10-20T04:12:43.650Z,11.32
2022-10-20T04:15:10.890Z,10.88
2022-10-20T04:20:07.292Z,13.13
2022-10-20T04:22:34.310Z,10.93
2022-10-20T04:25:02.048Z,13.63
2022-10-20T04:27:29.338Z,19.17
2022-10-20T04:29:56.012Z,14.20
2022-10-20T04:32:22.637Z,11.52
2022-10-20T04:34:49.274Z,13.13
2022-10-20T04:37:16.042Z,13.57
2022-10-20T04:39:42.779Z,12.02
2022-10-20T04:42:09.422Z,17.25
2022-10-20T04:44:36.048Z,12.70
2022-10-20T04:47:02.725Z,14.88
2022-10-20T04:49:29.391Z,10.82
2022-10-20T04:52:00.646Z,11.77
2022-10-20T04:54:27.841Z,10.18
2022-10-20T04:56:54.532Z,13.13
2022-10-20T04:59:21.462Z,17.05
2022-10-20T05:01:48.230Z,11.82
2022-10-20T05:04:21.220Z,12.02
2022-10-20T05:06:49.088Z,9.73
2022-10-20T05:09:16.529Z,15.35
2022-10-20T05:11:43.305Z,11.95
2022-10-20T05:14:10.029Z,11.32
2022-10-20T05:16:36.929Z,10.93
2022-10-20T05:19:03.560Z,13.45
2022-10-20T05:21:31.513Z,11.10
2022-10-20T05:24:00.323Z,15.18
2022-10-20T05:26:29.476Z,16.15
2022-10-20T05:28:57.142Z,14.15
2022-10-20T05:31:24.007Z,14.70
2022-10-20T05:33:53.694Z,15.43
2022-10-20T05:36:22.924Z,15.60
2022-10-20T05:38:52.154Z,13.93
2022-10-20T05:41:21.592Z,13.82
2022-10-20T05:43:53.940Z,10.38
2022-10-20T05:46:21.091Z,14.95
2022-10-20T05:48:47.862Z,11.38
2022-10-20T05:51:17.105Z,11.05
2022-10-20T05:53:44.704Z,10.38
2022-10-20T05:56:13.893Z,14.68
2022-10-20T05:58:43.298Z,16.75
2022-10-20T06:01:40.273Z,14.73
2022-10-20T06:04:08.715Z,10.30
2022-10-20T06:06:36.197Z,12.93
2022-10-20T06:09:06.391Z,16.85
2022-10-20T06:11:38.443Z,12.18
2022-10-20T06:14:06.311Z,15.93
2022-10-20T06:16:33.420Z,8.80
2022-10-20T06:19:00.163Z,10.90
2022-10-20T06:21:30.459Z,10.52
2022-10-20T06:24:00.781Z,9.45
2022-10-20T06:26:30.019Z,13.50
2022-10-20T06:29:03.607Z,18.20
2022-10-20T06:31:33.699Z,10.10
2022-10-20T06:34:01.394Z,16.60
2022-10-20T06:36:28.448Z,20.88
2022-10-20T06:38:57.144Z,10.65
2022-10-20T06:41:25.429Z,16.77
2022-10-20T06:44:00.936Z,13.05
2022-10-20T06:46:31.339Z,8.67
2022-10-20T06:49:01.395Z,10.02
2022-10-20T06:51:28.131Z,16.20
2022-10-20T06:53:54.956Z,10.23
2022-10-20T06:56:24.837Z,8.85
2022-10-20T06:58:53.792Z,14.52
2022-10-20T07:01:23.754Z,19.65
2022-10-20T07:03:53.268Z,25.02
2022-10-20T07:06:23.957Z,70.30
2022-10-20T07:08:53.808Z,4.35
2022-10-20T07:11:23.649Z,6.43
2022-10-20T07:13:50.423Z,10.23
2022-10-20T07:16:19.885Z,14.13
2022-10-20T07:18:48.560Z,16.45
2022-10-20T07:21:17.602Z,8.95
2022-10-20T07:23:45.276Z,9.60
2022-10-20T07:26:13.725Z,13.38
2022-10-20T07:28:42.785Z,9.07
2022-10-20T07:31:14.053Z,11.35
2022-10-20T07:33:41.301Z,8.20
2022-10-20T07:36:19.033Z,9.85
2022-10-20T07:38:47.072Z,10.05
2022-10-20T07:41:15.354Z,9.50
2022-10-20T07:43:42.635Z,9.98
2022-10-20T07:46:11.126Z,13.25
2022-10-20T07:48:38.528Z,12.15
2022-10-20T07:51:21.513Z,6.60
2022-10-20T07:53:49.323Z,7.68
2022-10-20T07:56:16.534Z,6.15
2022-10-20T07:58:44.178Z,7.70
2022-10-20T08:01:11.023Z,7.70
2022-10-20T08:03:39.041Z,9.30
2022-10-20T08:06:06.429Z,11.63
2022-10-20T08:08:34.027Z,9.02
2022-10-20T08:11:01.377Z,12.77
2022-10-20T08:13:28.558Z,12.18
2022-10-20T08:15:59.979Z,8.65
2022-10-20T08:18:43.364Z,10.77
2022-10-20T08:21:14.740Z,8.40
2022-10-20T08:23:43.362Z,9.32
2022-10-20T08:26:11.541Z,14.60
2022-10-20T08:28:38.635Z,8.80
2022-10-20T08:31:07.216Z,9.23
2022-10-20T08:33:34.965Z,16.25
2022-10-20T08:36:04.207Z,12.07
2022-10-20T08:38:31.115Z,9.77
2022-10-20T08:40:59.500Z,8.73
2022-10-20T08:43:28.233Z,14.25
2022-10-20T08:45:55.016Z,8.30
2022-10-20T08:48:26.268Z,8.52
2022-10-20T08:50:54.044Z,7.75
2022-10-20T08:53:23.988Z,5.18
2022-10-20T08:55:52.083Z,6.45
2022-10-20T08:58:22.646Z,5.35
2022-10-20T09:00:56.957Z,5.57
2022-10-20T09:03:30.871Z,9.15
2022-10-20T09:06:15.269Z,5.55
2022-10-20T09:08:43.754Z,11.70
2022-10-20T09:11:17.295Z,11.88
2022-10-20T09:13:44.472Z,10.40
2022-10-20T09:16:22.065Z,7.53
2022-10-20T09:19:01.427Z,9.30
2022-10-20T09:21:31.794Z,6.38
2022-10-20T09:24:03.718Z,4.80
2022-10-20T09:26:54.173Z,6.78
2022-10-20T09:29:21.025Z,9.88
2022-10-20T09:31:49.809Z,10.35
2022-10-20T09:34:25.303Z,15.25
2022-10-20T09:36:57.417Z,12.27
2022-10-20T09:39:27.844Z,9.10
2022-10-20T09:42:13.618Z,8.40
2022-10-20T09:45:03.801Z,5.10
2022-10-20T09:47:30.974Z,7.68
2022-10-20T09:50:01.445Z,5.95
2022-10-20T09:52:34.814Z,5.68
2022-10-20T09:55:07.655Z,7.43
2022-10-20T09:57:34.821Z,6.55
2022-10-20T10:00:18.855Z,5.55
2022-10-20T10:02:52.219Z,8.63
2022-10-20T10:05:21.019Z,7.72
2022-10-20T10:07:59.082Z,7.85
2022-10-20T10:10:30.588Z,9.07
2022-10-20T10:13:01.023Z,7.30
2022-10-20T10:15:33.549Z,10.70
2022-10-20T10:18:00.803Z,8.27
2022-10-20T10:20:34.483Z,12.20
2022-10-20T10:23:19.129Z,4.65
2022-10-20T10:25:46.266Z,7.22
2022-10-20T10:28:22.661Z,7.65
2022-10-20T10:30:50.191Z,7.03
2022-10-20T10:33:26.058Z,10.90
2022-10-20T10:35:52.988Z,6.97
2022-10-20T10:38:20.278Z,5.55
2022-10-20T10:41:20.008Z,9.30
2022-10-20T10:43:52.601Z,9.77
2022-10-20T10:46:26.236Z,7.20
2022-10-20T10:49:23.486Z,10.65
2022-10-20T10:54:26.130Z,8.20
2022-10-20T10:57:12.552Z,9.38
2022-10-20T10:59:43.097Z,5.90
2022-10-20T11:02:40.266Z,7.53
2022-10-20T11:07:51.156Z,8.45
2022-10-20T11:10:26.143Z,8.95
2022-10-20T11:13:26.133Z,7.75
2022-10-20T11:16:28.889Z,17.50
2022-10-20T11:19:18.216Z,11.95
2022-10-20T11:22:15.924Z,12.25
2022-10-20T11:24:57.660Z,7.18
2022-10-20T11:27:29.556Z,8.98
2022-10-20T11:30:05.709Z,9.02
2022-10-20T11:32:44.048Z,8.38
2022-10-20T11:35:41.164Z,7.82
2022-10-20T11:38:22.983Z,9.50
2022-10-20T11:41:19.106Z,10.75
2022-10-20T11:43:45.747Z,12.02
2022-10-20T11:46:15.871Z,13.70
2022-10-20T11:48:49.196Z,12.18
2022-10-20T11:51:37.073Z,7.80
2022-10-20T11:54:34.159Z,6.80
2022-10-20T11:57:29.418Z,10.60
2022-10-20T12:00:09.815Z,12.63
2022-10-20T12:03:06.947Z,14.88
2022-10-20T12:05:48.915Z,10.32
2022-10-20T12:08:31.086Z,7.63
2022-10-20T12:11:12.987Z,13.55
2022-10-20T12:14:03.430Z,9.55
2022-10-20T12:17:05.011Z,7.97
2022-10-20T12:19:35.170Z,9.10
2022-10-20T12:22:03.505Z,6.45
2022-10-20T12:24:32.144Z,9.25
2022-10-20T12:27:20.705Z,7.38
2022-10-20T12:29:51.181Z,18.52
2022-10-20T12:32:36.456Z,7.10
2022-10-20T12:35:23.100Z,9.45
2022-10-20T12:37:57.286Z,10.80
2022-10-20T12:40:30.263Z,11.10
2022-10-20T12:42:57.479Z,7.85
2022-10-20T12:45:37.880Z,10.18
2022-10-20T12:48:07.982Z,6.97
2022-10-20T12:50:45.367Z,6.03
2022-10-20T12:53:28.781Z,16.02
2022-10-20T12:55:58.561Z,9.93
2022-10-20T12:58:55.632Z,10.25
2022-10-20T13:03:50.930Z,6.28
2022-10-20T13:06:37.422Z,9.75
2022-10-20T13:09:04.257Z,9.85
2022-10-20T13:11:52.770Z,7.38
2022-10-20T13:14:27.610Z,14.40
2022-10-20T13:17:09.389Z,14.52
2022-10-20T13:19:47.108Z,15.20
2022-10-20T13:22:35.791Z,9.93
2022-10-20T13:25:06.175Z,7.45
2022-10-20T13:27:32.875Z,9.18
2022-10-20T13:29:59.632Z,12.93
2022-10-20T13:33:01.713Z,10.15
2022-10-20T13:38:18.843Z,15.07
2022-10-20T13:43:37.902Z,16.48
2022-10-20T13:46:22.942Z,11.60
2022-10-20T13:49:08.273Z,7.72
2022-10-20T13:51:47.368Z,24.23
2022-10-20T13:54:24.703Z,10.23
2022-10-20T13:56:52.332Z,13.45
2022-10-20T14:01:56.229Z,13.98
2022-10-20T14:04:26.357Z,6.55
2022-10-20T14:07:01.597Z,10.55
2022-10-20T14:09:28.666Z,10.30
2022-10-20T14:12:00.221Z,9.57
2022-10-20T14:14:29.458Z,15.45
2022-10-20T14:17:06.499Z,10.68
2022-10-20T14:19:34.039Z,8.63
2022-10-20T14:22:21.357Z,9.05
2022-10-20T14:24:57.372Z,13.55
2022-10-20T14:27:28.816Z,12.40
2022-10-20T14:29:56.617Z,10.23
2022-10-20T14:32:27.404Z,16.27
2022-10-20T14:35:13.905Z,9.23
2022-10-20T14:37:44.787Z,10.27
2022-10-20T14:40:24.374Z,16.73
2022-10-20T14:42:51.721Z,13.80
2022-10-20T14:45:25.093Z,13.82
2022-10-20T14:47:53.491Z,11.20
2022-10-20T14:50:40.843Z,9.20
2022-10-20T14:53:22.688Z,13.85
2022-10-20T14:55:49.451Z,11.95
2022-10-20T14:58:34.555Z,8.25
2022-10-20T15:01:24.435Z,10.43
2022-10-20T15:06:39.406Z,11.80
2022-10-20T15:09:06.342Z,10.30
2022-10-20T15:11:33.152Z,9.52
2022-10-20T15:14:00.451Z,12.68
2022-10-20T15:16:42.493Z,12.82
2022-10-20T15:19:27.350Z,14.23
2022-10-20T15:22:00.577Z,9.98
2022-10-20T15:24:28.605Z,12.85
2022-10-20T15:26:56.729Z,16.50
2022-10-20T15:29:24.171Z,10.63
2022-10-20T15:31:50.810Z,10.40
2022-10-20T15:34:17.555Z,12.23
2022-10-20T15:36:48.899Z,12.30
2022-10-20T15:39:17.715Z,11.82
2022-10-20T15:41:44.355Z,13.52
2022-10-20T15:44:15.809Z,11.68
2022-10-20T15:46:44.755Z,13.30
2022-10-20T15:49:12.273Z,10.63
2022-10-20T15:51:41.205Z,12.98
2022-10-20T15:54:13.631Z,14.32
2022-10-20T15:56:40.526Z,17.58
2022-10-20T15:59:07.218Z,15.57
2022-10-20T16:01:34.005Z,12.32
2022-10-20T16:04:04.890Z,11.75
2022-10-20T16:06:31.530Z,10.23
2022-10-20T16:08:58.242Z,18.92
2022-10-20T16:11:24.976Z,11.35
2022-10-20T16:13:51.596Z,11.35
2022-10-20T16:16:21.199Z,11.10
2022-10-20T16:18:48.001Z,11.10
2022-10-20T16:21:14.652Z,9.95
2022-10-20T16:23:42.477Z,12.82
2022-10-20T16:26:13.245Z,13.05
2022-10-20T16:28:40.424Z,10.02
2022-10-20T16:31:10.049Z,12.25
2022-10-20T16:33:37.007Z,14.10
2022-10-20T16:38:40.191Z,13.98
2022-10-20T16:41:10.585Z,12.27
2022-10-20T16:43:40.633Z,25.42
2022-10-20T16:46:09.318Z,13.85
2022-10-20T16:48:37.785Z,14.27
2022-10-20T16:51:07.051Z,12.07
2022-10-20T16:53:34.146Z,15.13
2022-10-20T16:56:00.884Z,18.10
2022-10-20T16:58:28.038Z,17.55
2022-10-20T17:01:04.067Z,21.98
2022-10-20T17:03:30.904Z,29.52
2022-10-20T17:05:59.834Z,17.45
2022-10-20T17:08:28.094Z,18.48
2022-10-20T17:10:57.007Z,21.63
2022-10-20T17:13:23.782Z,24.38
2022-10-20T17:15:50.906Z,18.08
2022-10-20T17:18:18.432Z,24.73
2022-10-20T17:20:45.177Z,18.40
2022-10-20T17:23:12.010Z,20.98
2022-10-20T17:25:39.563Z,24.20
2022-10-20T17:28:06.288Z,21.73
2022-10-20T17:30:32.967Z,18.50
2022-10-20T17:32:59.794Z,22.85
2022-10-20T17:35:28.713Z,14.65
2022-10-20T17:37:55.332Z,24.23
2022-10-20T17:40:22.481Z,20.83
2022-10-20T17:42:49.238Z,21.20
2022-10-20T17:45:16.030Z,26.33
2022-10-20T17:47:51.027Z,21.08
2022-10-20T17:50:17.683Z,19.05
2022-10-20T17:52:44.364Z,16.27
2022-10-20T17:55:11.036Z,20.23
2022-10-20T17:57:37.757Z,36.65
2022-10-20T18:00:10.927Z,20.98
2022-10-20T18:02:46.971Z,25.00
2022-10-20T18:05:17.037Z,26.05
2022-10-20T18:07:44.177Z,19.48
2022-10-20T18:10:11.974Z,22.13
2022-10-20T18:12:39.373Z,25.63
2022-10-20T18:15:06.854Z,24.85
2022-10-20T18:17:35.881Z,22.98
2022-10-20T18:20:03.357Z,23.02
2022-10-20T18:22:30.076Z,21.05
2022-10-20T18:24:56.770Z,16.30
2022-10-20T18:27:24.433Z,18.65
2022-10-20T18:29:51.091Z,19.98
2022-10-20T18:32:17.872Z,24.30
2022-10-20T18:34:46.266Z,22.73
2022-10-20T18:37:17.729Z,27.38
2022-10-20T18:39:45.754Z,17.27
2022-10-20T18:42:15.334Z,18.17
2022-10-20T18:44:42.881Z,22.98
2022-10-20T18:47:11.844Z,15.60
2022-10-20T18:49:38.476Z,20.77
2022-10-20T18:52:07.560Z,19.75
2022-10-20T18:54:34.375Z,18.88
2022-10-20T18:57:01.104Z,22.73
2022-10-20T18:59:28.110Z,18.92
2022-10-20T19:02:00.356Z,31.17
2022-10-20T19:04:30.551Z,18.52
2022-10-20T19:06:57.224Z,21.45
2022-10-20T19:09:23.874Z,23.08
2022-10-20T19:14:22.760Z,19.60
2022-10-20T19:16:50.247Z,21.05
2022-10-20T19:19:24.845Z,21.80
2022-10-20T19:21:51.502Z,19.17
2022-10-20T19:24:21.394Z,17.63
2022-10-20T19:27:02.320Z,23.23
2022-10-20T19:29:35.250Z,20.10
2022-10-20T19:32:04.652Z,22.55
2022-10-20T19:34:35.633Z,15.52
2022-10-20T19:37:03.683Z,20.35
2022-10-20T19:39:33.490Z,20.42
2022-10-20T19:42:01.678Z,20.13
2022-10-20T19:44:31.919Z,23.80
2022-10-20T19:46:59.256Z,20.65
2022-10-20T19:49:26.852Z,22.30
2022-10-20T19:51:53.869Z,16.77
2022-10-20T19:54:20.809Z,23.48
2022-10-20T19:56:47.593Z,17.95
2022-10-20T19:59:14.557Z,22.90
2022-10-20T20:01:41.213Z,15.93
2022-10-20T20:04:09.179Z,21.95
2022-10-20T20:06:35.847Z,26.98
2022-10-20T20:09:07.891Z,25.30
2022-10-20T20:11:38.517Z,21.25
2022-10-20T20:14:10.370Z,20.10
2022-10-20T20:16:37.698Z,19.45
2022-10-20T20:19:04.816Z,20.58
2022-10-20T20:21:31.773Z,24.92
2022-10-20T20:24:01.772Z,29.20
2022-10-20T20:26:30.865Z,16.42
2022-10-20T20:28:58.080Z,20.35
2022-10-20T20:31:29.024Z,21.58
2022-10-20T20:33:57.653Z,28.90
2022-10-20T20:36:27.121Z,25.50
2022-10-20T20:38:57.875Z,17.98
2022-10-20T20:41:27.326Z,20.33
2022-10-20T20:43:54.535Z,21.77
2022-10-20T20:46:22.956Z,20.58
2022-10-20T20:48:50.565Z,18.73
2022-10-20T20:51:17.576Z,25.40
2022-10-20T20:53:44.302Z,28.75
2022-10-20T20:56:13.904Z,23.35
2022-10-20T20:58:45.292Z,21.30
2022-10-20T21:01:19.008Z,25.35
2022-10-20T21:03:47.755Z,23.55
2022-10-20T21:06:17.209Z,20.90
2022-10-20T21:08:47.641Z,22.77
2022-10-20T21:11:16.942Z,21.88
2022-10-20T21:13:47.541Z,27.98
2022-10-20T21:16:15.192Z,26.13
2022-10-20T21:18:46.028Z,29.50
2022-10-20T21:21:15.577Z,31.88
2022-10-20T21:23:42.861Z,31.92
2022-10-20T21:26:11.780Z,32.05
2022-10-20T21:28:40.703Z,23.77
2022-10-20T21:31:09.462Z,22.40
2022-10-20T21:33:37.027Z,27.20
2022-10-20T21:36:12.514Z,26.73
2022-10-20T21:38:40.187Z,22.63
2022-10-20T21:41:12.829Z,24.67
2022-10-20T21:43:43.388Z,23.55
2022-10-20T21:46:25.536Z,26.42
2022-10-20T21:49:00.914Z,23.95
2022-10-20T21:51:37.642Z,20.25
2022-10-20T21:54:07.822Z,17.10
2022-10-20T21:56:37.234Z,21.35
2022-10-20T21:59:06.022Z,19.27
2022-10-20T22:01:33.095Z,17.73
2022-10-20T22:04:00.003Z,19.40
2022-10-20T22:06:31.200Z,18.65
2022-10-20T22:08:58.910Z,26.27
2022-10-20T22:11:29.644Z,20.33
2022-10-20T22:13:57.294Z,18.60
2022-10-20T22:16:28.154Z,17.77
2022-10-20T22:19:05.880Z,17.08
2022-10-20T22:21:37.206Z,17.77
2022-10-20T22:24:04.685Z,19.42
2022-10-20T22:26:32.262Z,21.73
2022-10-20T22:29:02.336Z,25.50
2022-10-20T22:31:30.200Z,15.57
2022-10-20T22:33:59.344Z,18.48
2022-10-20T22:36:27.340Z,14.35
2022-10-20T22:38:54.155Z,18.65
2022-10-20T22:41:21.431Z,23.02
2022-10-20T22:43:48.095Z,19.60
2022-10-20T22:46:16.024Z,18.00
2022-10-20T22:48:43.174Z,21.38
2022-10-20T22:51:10.910Z,26.90
2022-10-20T22:53:38.655Z,16.42
2022-10-20T22:56:11.969Z,14.38
2022-10-20T22:58:39.657Z,17.80
2022-10-20T23:01:09.228Z,16.50
2022-10-20T23:03:35.989Z,17.60
2022-10-20T23:06:08.632Z,19.70
2022-10-20T23:08:40.454Z,20.58
2022-10-20T23:11:07.283Z,21.35
2022-10-20T23:13:34.013Z,21.70
2022-10-20T23:16:01.298Z,16.92
2022-10-20T23:18:28.595Z,20.80
2022-10-20T23:20:57.402Z,16.10
2022-10-20T23:23:25.023Z,20.55
2022-10-20T23:25:52.045Z,20.20
2022-10-20T23:28:19.246Z,20.55
2022-10-20T23:30:46.142Z,22.17
2022-10-20T23:33:12.874Z,16.95
2022-10-20T23:35:39.693Z,27.38
2022-10-20T23:38:09.214Z,17.58
2022-10-20T23:40:36.396Z,19.65
2022-10-20T23:43:03.127Z,21.08
2022-10-20T23:45:31.797Z,31.00
2022-10-20T23:48:00.877Z,17.33
2022-10-20T23:50:27.522Z,21.40
2022-10-20T23:52:54.270Z,17.80
2022-10-20T23:55:20.909Z,23.58
2022-10-20T23:57:49.716Z,19.48
